Time;durP1;ratioP1;P1;durP2;ratioP2;P2;SDS_P1;SDS_P2;PMS_P1;PMS_P2;Temp;Humidity;BMP_temperature;BMP_pressure;BME280_temperature;BME280_humidity;BME280_pressure;Samples;Min_cycle;Max_cycle;Signal;HPM_P1;HPM_P2
2022/04/26 03:37:49;;;;;;;;;;;;;;;13.23;46.03;97193.78;6372441;27;19931;-64
2022/04/26 03:40:56;;;;;;;;;;;;;;;13.42;45.77;97192.53;6372538;27;19930;-64
2022/04/26 03:44:01;;;;;;;;;;;;;;;13.67;45.28;97197.75;6372175;27;20388;-64
2022/04/26 03:47:04;;;;;;;;;;;;;;;13.88;44.86;97197.97;6372396;27;19927;-64
2022/04/26 03:50:08;;;;;;;;;;;;;;;14.14;44.70;97196.03;6372402;27;19923;-64
2022/04/26 03:53:12;;;;;;;;;;;;;;;14.31;44.53;97197.44;6372346;27;19923;-64
2022/04/26 03:56:13;;;;;;;;;;;;;;;14.46;44.43;97194.59;6371654;27;20393;-63
2022/04/26 03:59:15;;;;;;;;;;;;;;;14.73;43.97;97192.53;6370471;27;20442;-65
2022/04/26 04:02:16;;;;;;;;;;;;;;;15.03;43.40;97194.66;6371194;27;19923;-65
2022/04/26 04:05:17;;;;;;;;;;;;;;;15.30;42.94;97192.59;6370544;27;20060;-64
2022/04/26 04:08:20;;;;;;;;;;;;;;;15.78;42.47;97192.34;6371780;27;19923;-63
2022/04/26 04:11:24;;;;;;;;;;;;;;;16.04;42.07;97191.03;6371971;27;20444;-64
2022/04/26 04:14:24;;;;;;;;;;;;;;;16.46;41.57;97191.13;6371157;27;19926;-64
2022/04/26 04:17:26;;;;;;;;;;;;;;;16.96;40.78;97194.00;6370718;27;20308;-64
2022/04/26 04:20:29;;;;;;;;;;;;;;;17.06;40.49;97202.03;6370835;27;19930;-64
2022/04/26 04:23:30;;;;;;;;;;;;;;;17.16;40.45;97194.13;6371140;27;20269;-65
2022/04/26 04:26:34;;;;;;;;;;;;;;;17.24;39.86;97186.31;6371979;27;19927;-64
2022/04/26 04:29:35;;;;;;;;;;;;;;;17.20;39.90;97190.19;6370934;27;19923;-65
2022/04/26 04:32:36;;;;;;;;;;;;;;;17.37;39.50;97186.91;6370802;27;19930;-64
2022/04/26 04:35:37;;;;;;;;;;;;;;;17.85;38.89;97186.25;6370810;27;19924;-64
2022/04/26 04:38:41;;;;;;;;;;;;;;;18.39;38.01;97195.53;6371080;27;19931;-65
2022/04/26 04:41:45;;;;;;;;;;;;;;;18.57;37.81;97194.81;6371655;28;19927;-65
2022/04/26 04:44:46;;;;;;;;;;;;;;;18.53;38.13;97198.78;6370690;28;20457;-64
2022/04/26 04:47:49;;;;;;;;;;;;;;;18.20;37.88;97189.38;6370628;28;19927;-64
2022/04/26 04:50:51;;;;;;;;;;;;;;;17.80;38.64;97193.78;6371220;28;19985;-65
2022/04/26 04:53:52;;;;;;;;;;;;;;;17.62;38.41;97190.09;6370973;28;20008;-64
2022/04/26 04:56:53;;;;;;;;;;;;;;;17.32;38.97;97194.44;6370514;28;19981;-64
2022/04/26 04:59:59;;;;;;;;;;;;;;;17.21;39.09;97202.50;6371285;28;19923;-65
2022/04/26 05:03:03;;;;;;;;;;;;;;;17.35;38.77;97190.69;6371204;28;20011;-64
2022/04/26 05:06:04;;;;;;;;;;;;;;;17.73;38.16;97197.97;6370124;28;19930;-64
2022/04/26 05:09:05;;;;;;;;;;;;;;;18.07;37.58;97200.31;6370451;27;19923;-65
2022/04/26 05:12:06;;;;;;;;;;;;;;;18.62;36.44;97205.91;6375061;27;19923;-64
2022/04/26 05:15:10;;;;;;;;;;;;;;;19.41;34.99;97213.63;6376368;27;19923;-64
2022/04/26 05:18:13;;;;;;;;;;;;;;;20.58;34.22;97203.13;6376151;27;19923;-64
2022/04/26 05:21:14;;;;;;;;;;;;;;;22.16;31.57;97210.88;6375498;27;19956;-64
2022/04/26 05:27:37;;;;;;;;;;;;;;;22.52;31.31;97215.16;6357097;27;19930;-64
2022/04/26 05:30:40;;;;;;;;;;;;;;;22.66;31.54;97217.19;6375842;27;19931;-65
2022/04/26 05:33:41;;;;;;;;;;;;;;;22.75;31.06;97221.53;6375089;27;19930;-64
2022/04/26 05:36:42;;;;;;;;;;;;;;;22.95;30.61;97221.19;6374386;27;20316;-65
2022/04/26 05:39:46;;;;;;;;;;;;;;;24.31;29.09;97221.16;6374636;27;19923;-65
2022/04/26 05:42:47;;;;;;;;;;;;;;;25.50;27.33;97217.00;6374838;27;19929;-65
2022/04/26 05:45:50;;;;;;;;;;;;;;;25.19;26.63;97222.53;6375509;27;19924;-64
2022/04/26 05:48:51;;;;;;;;;;;;;;;24.71;27.76;97221.91;6374700;27;20324;-64
2022/04/26 05:51:53;;;;;;;;;;;;;;;24.51;28.42;97222.38;6374860;27;19968;-64
2022/04/26 05:54:57;;;;;;;;;;;;;;;24.57;28.51;97219.00;6374166;27;19934;-64
2022/04/26 05:57:58;;;;;;;;;;;;;;;27.22;25.08;97220.88;6374668;27;19930;-65
2022/04/26 06:00:59;;;;;;;;;;;;;;;31.43;21.40;97223.25;6374176;27;19930;-65
2022/04/26 06:04:05;;;;;;;;;;;;;;;34.95;16.52;97224.94;6374638;27;19923;-64
2022/04/26 06:07:07;;;;;;;;;;;;;;;37.76;17.02;97233.88;6373993;27;19930;-64
2022/04/26 06:10:13;;;;;;;;;;;;;;;39.60;14.11;97228.94;6374751;27;19943;-65
2022/04/26 06:13:15;;;;;;;;;;;;;;;40.67;14.00;97232.50;6374006;27;20015;-66
2022/04/26 06:16:16;;;;;;;;;;;;;;;42.17;11.25;97240.09;6374557;27;19946;-64
2022/04/26 06:19:21;;;;;;;;;;;;;;;43.58;11.96;97232.00;6373985;27;19931;-65
2022/04/26 06:22:28;;;;;;;;;;;;;;;43.80;11.29;97234.09;6373186;27;19930;-65
2022/04/26 06:25:36;;;;;;;;;;;;;;;43.85;10.30;97222.06;6374575;27;20316;-65
2022/04/26 06:28:40;;;;;;;;;;;;;;;44.68;10.25;97233.19;6374417;27;19969;-64
2022/04/26 06:31:44;;;;;;;;;;;;;;;44.74;8.94;97220.88;6374154;27;20316;-65
2022/04/26 06:34:50;;;;;;;;;;;;;;;45.44;9.26;97216.69;6374182;27;19923;-64
2022/04/26 06:37:50;;;;;;;;;;;;;;;46.82;8.74;97223.13;6373850;27;19923;-65
2022/04/26 06:40:56;;;;;;;;;;;;;;;45.00;7.84;97221.06;6374262;27;19927;-65
2022/04/26 06:43:57;;;;;;;;;;;;;;;40.93;9.52;97205.56;6354842;27;20025;-65
2022/04/26 06:47:01;;;;;;;;;;;;;;;40.83;9.21;97195.44;6373850;27;20316;-64
2022/04/26 06:50:05;;;;;;;;;;;;;;;40.60;9.74;97192.22;6373702;27;19927;-64
2022/04/26 06:53:09;;;;;;;;;;;;;;;41.40;9.60;97188.34;6373837;27;20410;-65
2022/04/26 06:56:10;;;;;;;;;;;;;;;44.08;8.59;97182.28;6373033;27;20045;-65
2022/04/26 06:59:14;;;;;;;;;;;;;;;46.63;7.54;97188.06;6373587;27;19919;-65
2022/04/26 07:02:17;;;;;;;;;;;;;;;49.04;7.11;97197.06;6373696;27;19923;-65
2022/04/26 07:05:18;;;;;;;;;;;;;;;50.70;5.77;97182.72;6372425;27;19923;-65
2022/04/26 07:08:22;;;;;;;;;;;;;;;50.67;5.74;97189.03;6372135;27;19923;-65
2022/04/26 07:11:24;;;;;;;;;;;;;;;50.42;5.34;97193.03;6354434;27;19924;-65
2022/04/26 07:14:29;;;;;;;;;;;;;;;50.04;5.72;97177.41;6372715;27;19957;-65
2022/04/26 07:17:32;;;;;;;;;;;;;;;49.89;4.32;97179.72;6373270;27;19923;-64
2022/04/26 07:20:36;;;;;;;;;;;;;;;47.66;5.20;97161.25;6373210;27;20082;-65
2022/04/26 07:23:39;;;;;;;;;;;;;;;47.79;5.57;97159.44;6373067;27;20053;-65
2022/04/26 07:26:43;;;;;;;;;;;;;;;47.90;5.61;97159.84;6373098;27;19931;-65
2022/04/26 07:29:49;;;;;;;;;;;;;;;45.08;5.81;97159.22;6372841;27;19928;-64
2022/04/26 07:36:10;;;;;;;;;;;;;;;40.78;7.95;97137.53;6372828;27;19928;-64
2022/04/26 07:39:17;;;;;;;;;;;;;;;42.72;7.01;97146.41;6372713;27;19923;-65
2022/04/26 07:42:21;;;;;;;;;;;;;;;42.17;7.44;97141.38;6372791;27;19923;-65
2022/04/26 07:45:24;;;;;;;;;;;;;;;40.47;8.36;97132.19;6372471;27;19923;-66
2022/04/26 07:48:28;;;;;;;;;;;;;;;38.86;9.58;97125.75;6372509;27;19930;-65
2022/04/26 07:51:32;;;;;;;;;;;;;;;36.31;11.03;97114.13;6353685;27;19927;-64
2022/04/26 07:54:36;;;;;;;;;;;;;;;33.76;12.45;97106.25;6371860;27;19966;-66
2022/04/26 07:57:40;;;;;;;;;;;;;;;32.97;13.22;97114.81;6372217;27;19923;-65
2022/04/26 08:00:43;;;;;;;;;;;;;;;31.57;13.40;97118.69;6371654;27;20397;-65
2022/04/26 08:03:49;;;;;;;;;;;;;;;31.70;13.69;97104.91;6371184;27;19926;-64
2022/04/26 08:06:52;;;;;;;;;;;;;;;32.01;13.32;97111.25;6371296;27;19923;-65
2022/04/26 08:09:58;;;;;;;;;;;;;;;35.72;10.99;97118.34;6371732;27;19924;-65
2022/04/26 08:13:02;;;;;;;;;;;;;;;37.20;9.90;97104.50;6371761;27;19942;-64
2022/04/26 08:16:05;;;;;;;;;;;;;;;39.71;8.97;97112.13;6371749;27;19964;-65
2022/04/26 08:19:10;;;;;;;;;;;;;;;41.73;7.50;97114.00;6352237;27;20074;-65
2022/04/26 08:22:11;;;;;;;;;;;;;;;42.47;6.75;97116.38;6353196;27;19930;-65
2022/04/26 08:28:36;;;;;;;;;;;;;;;43.17;7.07;97116.34;6370702;27;19930;-65
2022/04/26 08:31:39;;;;;;;;;;;;;;;43.29;6.90;97107.59;6370182;27;19929;-64
2022/04/26 08:34:41;;;;;;;;;;;;;;;40.29;8.32;97097.03;6371746;27;19930;-65
2022/04/26 08:37:45;;;;;;;;;;;;;;;36.95;10.08;97084.00;6370625;27;19924;-65
2022/04/26 08:40:49;;;;;;;;;;;;;;;34.07;11.80;97085.06;6354137;28;19928;-64
2022/04/26 08:43:55;;;;;;;;;;;;;;;31.44;13.33;97083.50;6371465;27;19920;-65
2022/04/26 08:53:40;;;;;;;;;;;;;;;27.43;17.34;97081.31;6370679;28;19924;-65
2022/04/26 08:56:41;;;;;;;;;;;;;;;26.09;18.79;97084.03;6370746;28;19929;-64
2022/04/26 08:59:46;;;;;;;;;;;;;;;25.42;20.17;97087.78;6371100;28;20445;-65
2022/04/26 09:03:04;;;;;;;;;;;;;;;25.65;20.25;97087.69;6369438;28;20402;-63
2022/04/26 09:06:13;;;;;;;;;;;;;;;25.12;22.02;97100.41;6352329;28;19930;-65
2022/04/26 09:09:15;;;;;;;;;;;;;;;23.91;24.34;97099.41;6370354;28;20277;-65
2022/04/26 09:12:16;;;;;;;;;;;;;;;23.45;24.39;97093.94;6369997;28;19934;-65
2022/04/26 09:15:23;;;;;;;;;;;;;;;23.42;24.90;97105.88;6371394;28;19927;-64
2022/04/26 09:18:27;;;;;;;;;;;;;;;23.27;24.65;97097.72;6370338;28;19923;-64
2022/04/26 09:21:30;;;;;;;;;;;;;;;23.62;24.09;97095.53;6370242;28;19930;-65
2022/04/26 09:24:51;;;;;;;;;;;;;;;24.13;23.79;97098.59;6369937;28;19929;-63
2022/04/26 09:27:57;;;;;;;;;;;;;;;25.49;21.87;97097.63;6370243;28;19923;-65
2022/04/26 09:31:00;;;;;;;;;;;;;;;28.68;19.32;97107.06;6371206;28;19923;-65
2022/04/26 09:34:05;;;;;;;;;;;;;;;30.50;17.38;97104.41;6370113;28;19930;-64
2022/04/26 09:37:08;;;;;;;;;;;;;;;32.10;16.19;97114.47;6369924;28;19923;-64
2022/04/26 09:40:11;;;;;;;;;;;;;;;32.83;14.67;97118.84;6370061;28;19923;-65
2022/04/26 09:43:15;;;;;;;;;;;;;;;33.27;14.90;97124.84;6369253;28;20296;-64
2022/04/26 09:46:16;;;;;;;;;;;;;;;32.71;15.17;97120.75;6369951;28;20395;-65
2022/04/26 09:49:22;;;;;;;;;;;;;;;32.76;15.29;97118.16;6370928;28;20342;-65
2022/04/26 09:52:23;;;;;;;;;;;;;;;32.71;15.01;97105.22;6369777;28;20316;-64
2022/04/26 09:55:25;;;;;;;;;;;;;;;32.90;15.35;97122.31;6369658;27;20020;-65
2022/04/26 09:58:29;;;;;;;;;;;;;;;32.87;15.32;97125.50;6373875;27;19934;-66
2022/04/26 10:01:39;;;;;;;;;;;;;;;32.93;14.67;97121.84;6375460;27;19935;-65
2022/04/26 10:04:47;;;;;;;;;;;;;;;32.42;14.91;97123.25;6375358;27;19923;-64
2022/04/26 10:07:53;;;;;;;;;;;;;;;31.90;15.53;97114.72;6374624;27;19927;-65
2022/04/26 10:10:56;;;;;;;;;;;;;;;31.96;15.41;97122.00;6374525;27;19976;-64
2022/04/26 10:14:05;;;;;;;;;;;;;;;31.77;15.53;97116.56;6375091;27;20374;-63
2022/04/26 10:17:14;;;;;;;;;;;;;;;31.33;16.24;97109.50;6375144;27;19946;-64
2022/04/26 10:20:34;;;;;;;;;;;;;;;29.54;17.39;97117.78;6374222;27;19923;-65
2022/04/26 10:23:51;;;;;;;;;;;;;;;29.52;17.52;97109.00;6374095;27;20289;-64
2022/04/26 10:27:12;;;;;;;;;;;;;;;30.04;17.27;97109.03;6373376;27;20423;-64
2022/04/26 10:30:16;;;;;;;;;;;;;;;28.51;18.63;97111.22;6373643;27;19976;-64
2022/04/26 10:33:38;;;;;;;;;;;;;;;27.48;19.73;97109.41;6374595;27;19923;-65
2022/04/26 10:36:39;;;;;;;;;;;;;;;26.13;20.80;97096.13;6355644;27;19923;-65
2022/04/26 10:39:45;;;;;;;;;;;;;;;25.39;21.80;97099.78;6373142;27;19960;-64
2022/04/26 10:43:05;;;;;;;;;;;;;;;24.80;23.08;97105.13;6355369;27;19923;-65
2022/04/26 10:46:10;;;;;;;;;;;;;;;24.28;23.88;97097.81;6374065;27;20304;-65
2022/04/26 10:49:26;;;;;;;;;;;;;;;23.52;24.32;97105.63;6373149;27;19923;-64
2022/04/26 10:52:27;;;;;;;;;;;;;;;24.14;24.31;97094.06;6373249;27;20303;-65
2022/04/26 10:55:28;;;;;;;;;;;;;;;25.57;22.37;97090.47;6372468;27;19929;-65
2022/04/26 10:58:30;;;;;;;;;;;;;;;26.15;21.72;97097.56;6373200;27;19946;-65
2022/04/26 11:01:35;;;;;;;;;;;;;;;25.83;21.74;97090.81;6373437;27;19923;-64
2022/04/26 11:04:37;;;;;;;;;;;;;;;25.34;22.35;97086.06;6372538;27;20061;-65
2022/04/26 11:07:41;;;;;;;;;;;;;;;25.30;22.70;97077.50;6372523;27;20277;-64
2022/04/26 11:11:07;;;;;;;;;;;;;;;24.83;23.29;97077.84;6372681;27;20304;-67
2022/04/26 11:14:08;;;;;;;;;;;;;;;24.16;24.02;97081.28;6372643;27;19923;-65
2022/04/26 11:17:11;;;;;;;;;;;;;;;23.72;24.64;97106.94;6371897;27;19954;-64
2022/04/26 11:20:16;;;;;;;;;;;;;;;23.49;25.02;97095.25;6372511;27;20441;-64
2022/04/26 11:30:21;;;;;;;;;;;;;;;23.70;25.90;97091.97;6372920;27;19923;-65
2022/04/26 11:33:25;;;;;;;;;;;;;;;23.31;26.97;97098.19;6372848;27;19924;-64
2022/04/26 11:36:36;;;;;;;;;;;;;;;23.06;27.28;97100.13;6372660;27;20353;-65
2022/04/26 11:39:42;;;;;;;;;;;;;;;22.77;27.45;97100.66;6354641;27;19932;-65
2022/04/26 11:42:46;;;;;;;;;;;;;;;22.63;27.67;97091.47;6372478;27;19923;-65
2022/04/26 11:45:50;;;;;;;;;;;;;;;22.59;27.78;97104.38;6372954;27;20007;-64
2022/04/26 11:48:57;;;;;;;;;;;;;;;22.86;27.75;97111.19;6353626;27;20030;-64
2022/04/26 11:52:01;;;;;;;;;;;;;;;22.82;28.00;97104.50;6372449;27;19923;-63
2022/04/26 11:55:02;;;;;;;;;;;;;;;22.66;27.95;97099.16;6371663;27;19924;-65
2022/04/26 11:58:08;;;;;;;;;;;;;;;22.84;28.47;97107.88;6353871;27;19919;-65
2022/04/26 12:01:15;;;;;;;;;;;;;;;23.05;28.01;97098.44;6372346;27;19923;-65
2022/04/26 12:04:23;;;;;;;;;;;;;;;23.33;27.20;97100.72;6372221;27;20372;-66
2022/04/26 12:07:25;;;;;;;;;;;;;;;23.78;26.98;97105.38;6370810;27;20446;-64
2022/04/26 12:10:29;;;;;;;;;;;;;;;23.72;27.32;97106.94;6372034;27;19924;-65
2022/04/26 12:13:32;;;;;;;;;;;;;;;23.48;27.49;97109.69;6371195;27;20427;-64
2022/04/26 12:16:44;;;;;;;;;;;;;;;23.23;27.73;97104.41;6371960;27;19923;-66
2022/04/26 12:19:50;;;;;;;;;;;;;;;23.25;27.67;97105.09;6371714;27;20022;-65
2022/04/26 12:22:57;;;;;;;;;;;;;;;23.17;28.01;97105.13;6371504;27;19923;-65
2022/04/26 12:26:02;;;;;;;;;;;;;;;23.09;27.84;97105.13;6370624;27;20072;-66
2022/04/26 12:29:13;;;;;;;;;;;;;;;23.16;27.60;97106.13;6371602;27;19923;-64
2022/04/26 12:32:15;;;;;;;;;;;;;;;23.07;27.53;97096.41;6370896;27;20087;-65
2022/04/26 12:35:20;;;;;;;;;;;;;;;22.98;27.44;97094.78;6352992;27;20280;-65
2022/04/26 12:38:26;;;;;;;;;;;;;;;23.12;27.33;97088.69;6371305;27;20392;-64
2022/04/26 12:41:27;;;;;;;;;;;;;;;23.38;27.06;97095.63;6370315;27;19923;-67
2022/04/26 12:44:34;;;;;;;;;;;;;;;23.41;26.62;97098.84;6371431;28;19927;-65
2022/04/26 12:51:17;;;;;;;;;;;;;;;23.65;26.52;97095.16;6370430;28;19930;-66
2022/04/26 12:54:23;;;;;;;;;;;;;;;24.35;25.37;97079.94;6370491;28;20445;-65
2022/04/26 12:57:27;;;;;;;;;;;;;;;24.83;25.03;97077.84;6369599;28;20308;-65
2022/04/26 13:00:31;;;;;;;;;;;;;;;25.35;24.36;97082.31;6371255;28;19924;-65
2022/04/26 13:03:34;;;;;;;;;;;;;;;25.60;23.91;97074.75;6352366;28;19924;-64
2022/04/26 13:06:37;;;;;;;;;;;;;;;25.51;23.68;97075.91;6370550;28;19944;-63
2022/04/26 13:09:39;;;;;;;;;;;;;;;25.05;24.21;97071.56;6369942;28;19923;-64
2022/04/26 13:12:43;;;;;;;;;;;;;;;24.54;24.60;97068.72;6370909;28;19923;-65
2022/04/26 13:15:45;;;;;;;;;;;;;;;23.90;24.93;97057.44;6370609;28;19931;-65
2022/04/26 13:18:46;;;;;;;;;;;;;;;23.28;25.68;97064.47;6370285;28;20399;-64
2022/04/26 13:21:49;;;;;;;;;;;;;;;22.77;26.25;97061.25;6369410;28;19927;-65
2022/04/26 13:24:51;;;;;;;;;;;;;;;22.60;26.49;97062.31;6370158;28;19930;-64
2022/04/26 13:27:54;;;;;;;;;;;;;;;22.54;26.31;97052.25;6370482;28;20299;-65
2022/04/26 13:30:58;;;;;;;;;;;;;;;21.91;27.06;97057.28;6371276;27;20304;-64
2022/04/26 13:33:59;;;;;;;;;;;;;;;21.57;27.47;97046.69;6375405;27;20018;-64
2022/04/26 13:37:03;;;;;;;;;;;;;;;21.57;27.65;97044.00;6375216;27;19923;-65
2022/04/26 13:40:04;;;;;;;;;;;;;;;21.40;27.68;97043.13;6374718;27;19930;-64
2022/04/26 13:43:06;;;;;;;;;;;;;;;21.41;28.23;97052.81;6374031;27;19923;-65
2022/04/26 13:46:07;;;;;;;;;;;;;;;20.93;28.86;97040.06;6374401;27;20335;-66
2022/04/26 13:49:08;;;;;;;;;;;;;;;20.56;29.33;97034.03;6374155;27;19946;-65
2022/04/26 13:52:09;;;;;;;;;;;;;;;20.31;29.38;97040.16;6375183;27;19969;-63
2022/04/26 13:55:17;;;;;;;;;;;;;;;20.56;29.36;97034.03;6374962;27;19924;-66
2022/04/26 13:58:24;;;;;;;;;;;;;;;20.58;29.50;97024.00;6356525;27;20293;-64
2022/04/26 14:01:30;;;;;;;;;;;;;;;20.65;30.26;97026.06;6374500;27;19961;-65
2022/04/26 14:04:31;;;;;;;;;;;;;;;20.38;30.52;97025.19;6373821;27;19946;-65
2022/04/26 14:07:33;;;;;;;;;;;;;;;20.04;31.10;97028.63;6374729;27;20391;-65
2022/04/26 14:10:34;;;;;;;;;;;;;;;19.90;30.76;97029.16;6373482;27;20384;-64
2022/04/26 14:21:47;;;;;;;;;;;;;;;19.90;31.00;97021.13;6374085;27;19946;-65
2022/04/26 14:23:37;;;;;;;;;;;;;;;19.97;30.82;97016.88;6373857;27;19928;-65
2022/04/26 14:26:41;;;;;;;;;;;;;;;19.94;30.64;97019.84;6374448;27;19923;-64
2022/04/26 14:29:42;;;;;;;;;;;;;;;19.89;30.92;97019.47;6373782;27;20311;-65
2022/04/26 14:32:49;;;;;;;;;;;;;;;19.72;31.43;97027.34;6374057;27;19923;-65
2022/04/26 14:35:50;;;;;;;;;;;;;;;19.59;31.72;97026.88;6373702;27;19919;-65
2022/04/26 14:38:54;;;;;;;;;;;;;;;19.47;31.88;97030.72;6356233;27;20018;-64
2022/04/26 14:41:59;;;;;;;;;;;;;;;19.52;32.42;97033.78;6373691;27;19919;-64
2022/04/26 14:45:03;;;;;;;;;;;;;;;19.32;32.81;97037.56;6373233;27;19923;-65
2022/04/26 14:48:04;;;;;;;;;;;;;;;19.28;33.10;97031.72;6372913;27;19923;-66
2022/04/26 14:51:10;;;;;;;;;;;;;;;18.93;32.95;97029.78;6374275;27;20006;-65
2022/04/26 14:54:16;;;;;;;;;;;;;;;18.77;32.88;97039.25;6374120;27;20396;-65
2022/04/26 14:57:21;;;;;;;;;;;;;;;18.47;33.07;97042.13;6373936;27;19927;-65
2022/04/26 15:00:22;;;;;;;;;;;;;;;18.33;33.60;97036.28;6373423;27;20416;-65
2022/04/26 15:03:23;;;;;;;;;;;;;;;18.48;34.05;97041.97;6372752;27;20382;-64
2022/04/26 15:06:27;;;;;;;;;;;;;;;18.17;34.26;97030.69;6373564;27;20312;-65
2022/04/26 15:09:43;;;;;;;;;;;;;;;17.93;34.62;97023.16;6372067;27;20383;-65
2022/04/26 15:19:27;;;;;;;;;;;;;;;17.37;35.48;97042.44;6373408;27;20415;-65
2022/04/26 15:22:28;;;;;;;;;;;;;;;17.21;35.87;97041.16;6373154;27;19923;-66
2022/04/26 15:25:32;;;;;;;;;;;;;;;17.22;35.83;97042.00;6372900;27;20014;-65
2022/04/26 15:28:36;;;;;;;;;;;;;;;17.19;36.18;97052.91;6372923;27;20347;-66
2022/04/26 15:31:39;;;;;;;;;;;;;;;17.09;36.65;97044.06;6372427;27;19931;-65
2022/04/26 15:34:40;;;;;;;;;;;;;;;16.92;36.90;97059.66;6372277;27;19926;-65
2022/04/26 15:37:44;;;;;;;;;;;;;;;16.82;37.33;97053.50;6372993;27;20307;-63
2022/04/26 15:40:50;;;;;;;;;;;;;;;16.81;37.73;97052.66;6353819;27;19923;-65
2022/04/26 15:43:53;;;;;;;;;;;;;;;16.74;38.04;97062.09;6372483;27;20380;-65
2022/04/26 15:47:00;;;;;;;;;;;;;;;16.66;37.99;97053.94;6371492;27;20411;-64
2022/04/26 15:50:05;;;;;;;;;;;;;;;16.71;38.38;97053.56;6372589;27;20381;-65
2022/04/26 15:53:06;;;;;;;;;;;;;;;16.67;38.35;97058.28;6353889;27;20396;-65
2022/04/26 15:56:12;;;;;;;;;;;;;;;16.53;38.75;97056.84;6372518;27;19928;-63
2022/04/26 15:59:15;;;;;;;;;;;;;;;16.29;38.91;97061.56;6372547;27;19923;-66
2022/04/26 16:02:23;;;;;;;;;;;;;;;16.32;39.17;97061.31;6372306;27;19923;-65
2022/04/26 16:05:25;;;;;;;;;;;;;;;16.05;39.25;97065.34;6371120;27;19930;-65
2022/04/26 16:08:26;;;;;;;;;;;;;;;16.04;39.54;97058.31;6370835;27;19924;-65
2022/04/26 16:21:31;;;;;;;;;;;;;;;15.54;39.88;97060.72;6372163;27;19923;-65
2022/04/26 16:24:41;;;;;;;;;;;;;;;15.40;39.89;97068.91;6371554;27;19923;-65
2022/04/26 16:27:42;;;;;;;;;;;;;;;15.41;40.07;97070.63;6372135;27;20300;-66
2022/04/26 16:30:48;;;;;;;;;;;;;;;15.22;40.12;97065.94;6371844;27;20018;-65
2022/04/26 16:33:52;;;;;;;;;;;;;;;15.14;39.89;97063.91;6352535;27;20408;-65
2022/04/26 16:36:54;;;;;;;;;;;;;;;14.99;40.18;97065.16;6371289;27;19930;-65
2022/04/26 16:39:56;;;;;;;;;;;;;;;14.79;40.28;97064.91;6371343;27;20010;-64
2022/04/26 16:42:57;;;;;;;;;;;;;;;14.67;40.44;97068.53;6352563;27;19946;-64
2022/04/26 16:46:01;;;;;;;;;;;;;;;14.53;40.69;97074.06;6371646;28;19923;-64
2022/04/26 16:49:05;;;;;;;;;;;;;;;14.38;41.00;97071.63;6371365;28;20339;-66
2022/04/26 16:52:09;;;;;;;;;;;;;;;14.28;40.60;97062.69;6371795;28;20297;-64
2022/04/26 16:55:10;;;;;;;;;;;;;;;14.20;41.14;97059.78;6353271;28;19924;-65
2022/04/26 16:58:13;;;;;;;;;;;;;;;14.08;40.98;97066.00;6371550;28;19949;-64
2022/04/26 17:01:16;;;;;;;;;;;;;;;13.93;41.08;97066.22;6371865;28;19924;-64
2022/04/26 17:04:17;;;;;;;;;;;;;;;13.97;41.80;97066.81;6371579;28;19930;-65
2022/04/26 17:07:19;;;;;;;;;;;;;;;13.86;41.44;97074.72;6373441;27;19923;-65
2022/04/26 17:10:24;;;;;;;;;;;;;;;13.72;41.75;97072.25;6376793;27;19930;-64
2022/04/26 17:13:26;;;;;;;;;;;;;;;13.60;41.75;97074.03;6358003;27;19930;-64
2022/04/26 17:16:28;;;;;;;;;;;;;;;13.53;41.90;97068.34;6375607;27;19923;-65
2022/04/26 17:19:29;;;;;;;;;;;;;;;13.55;42.13;97070.88;6358114;27;20411;-65
2022/04/26 17:22:34;;;;;;;;;;;;;;;13.50;42.17;97073.00;6358564;27;19988;-64
2022/04/26 17:25:36;;;;;;;;;;;;;;;13.43;42.25;97078.75;6374999;27;19924;-65
2022/04/26 17:28:40;;;;;;;;;;;;;;;13.42;42.21;97077.06;6376196;27;19923;-64
2022/04/26 17:31:41;;;;;;;;;;;;;;;13.39;42.21;97071.13;6375737;27;19945;-66
2022/04/26 17:34:43;;;;;;;;;;;;;;;13.43;42.12;97068.16;6375230;27;19919;-65
2022/04/26 17:37:44;;;;;;;;;;;;;;;13.39;42.28;97066.72;6376117;27;20420;-65
2022/04/26 17:40:48;;;;;;;;;;;;;;;13.57;42.50;97082.19;6376013;27;20384;-64
2022/04/26 17:43:52;;;;;;;;;;;;;;;13.81;42.42;97071.56;6375153;27;19930;-64
2022/04/26 17:46:55;;;;;;;;;;;;;;;14.06;41.85;97065.28;6374838;27;19919;-66
2022/04/26 17:49:58;;;;;;;;;;;;;;;14.09;41.67;97067.69;6374961;27;20311;-64
2022/04/26 17:56:32;;;;;;;;;;;;;;;14.19;41.49;97066.03;6374981;27;19930;-66
2022/04/26 17:59:33;;;;;;;;;;;;;;;14.23;41.59;97067.47;6374260;27;19923;-65
2022/04/26 18:02:34;;;;;;;;;;;;;;;14.12;41.47;97064.81;6356325;27;20344;-64
2022/04/26 18:05:35;;;;;;;;;;;;;;;14.09;41.74;97070.34;6374686;27;19930;-64
2022/04/26 18:08:38;;;;;;;;;;;;;;;13.84;41.84;97066.91;6375020;27;19923;-65
2022/04/26 18:11:40;;;;;;;;;;;;;;;13.75;42.39;97074.69;6374463;27;19929;-64
2022/04/26 18:14:41;;;;;;;;;;;;;;;13.63;42.78;97073.78;6374047;27;19924;-64
2022/04/26 18:17:42;;;;;;;;;;;;;;;13.56;42.79;97072.53;6374669;27;19976;-65
2022/04/26 18:20:49;;;;;;;;;;;;;;;13.59;43.38;97069.69;6374889;27;20010;-65
2022/04/26 18:23:51;;;;;;;;;;;;;;;13.50;43.52;97067.72;6374774;27;19930;-65
2022/04/26 18:26:52;;;;;;;;;;;;;;;13.42;43.29;97069.13;6374880;27;19927;-65
2022/04/26 18:29:53;;;;;;;;;;;;;;;13.31;43.47;97073.53;6374396;27;19923;-64
2022/04/26 18:32:57;;;;;;;;;;;;;;;13.21;43.71;97073.28;6374630;27;20007;-64
2022/04/26 18:36:00;;;;;;;;;;;;;;;13.12;44.00;97068.69;6356682;27;19919;-65
2022/04/26 18:39:08;;;;;;;;;;;;;;;12.93;44.18;97085.81;6373809;27;19946;-64
2022/04/26 18:42:12;;;;;;;;;;;;;;;12.73;44.15;97079.31;6374316;27;19925;-65
2022/04/26 18:45:13;;;;;;;;;;;;;;;12.70;44.18;97083.97;6355634;27;19930;-64
2022/04/26 18:48:14;;;;;;;;;;;;;;;12.69;44.52;97077.00;6373768;27;19924;-65
2022/04/26 18:51:15;;;;;;;;;;;;;;;12.68;44.76;97076.19;6374280;27;19923;-64
2022/04/26 18:54:16;;;;;;;;;;;;;;;12.69;44.80;97077.00;6374332;27;19923;-65
2022/04/26 18:57:20;;;;;;;;;;;;;;;12.55;45.33;97080.63;6355470;27;19931;-64
2022/04/26 19:00:24;;;;;;;;;;;;;;;12.41;44.92;97076.28;6374101;27;19923;-65
2022/04/26 19:03:25;;;;;;;;;;;;;;;12.35;45.05;97079.34;6338118;27;20025;-64
2022/04/26 19:06:27;;;;;;;;;;;;;;;12.31;45.28;97077.84;6373285;27;19923;-64
2022/04/26 19:09:28;;;;;;;;;;;;;;;12.25;45.81;97070.38;6372510;27;19927;-64
2022/04/26 19:12:29;;;;;;;;;;;;;;;12.16;45.74;97071.00;6373164;27;19931;-64
2022/04/26 19:15:31;;;;;;;;;;;;;;;12.09;45.85;97074.06;6372780;27;20395;-64
2022/04/26 19:18:35;;;;;;;;;;;;;;;12.06;45.90;97079.53;6373843;27;19930;-65
2022/04/26 19:21:36;;;;;;;;;;;;;;;11.98;45.97;97076.56;6372591;27;19930;-64
2022/04/26 19:24:39;;;;;;;;;;;;;;;11.99;46.26;97077.41;6372320;27;19930;-63
2022/04/26 19:27:40;;;;;;;;;;;;;;;11.96;46.32;97075.81;6373567;27;19976;-65
2022/04/26 19:30:44;;;;;;;;;;;;;;;11.96;46.68;97089.00;6353811;27;19946;-64
2022/04/26 19:33:45;;;;;;;;;;;;;;;12.01;46.97;97086.91;6372453;27;20384;-63
2022/04/26 19:36:47;;;;;;;;;;;;;;;12.06;46.94;97083.97;6373260;27;19923;-64
2022/04/26 19:39:48;;;;;;;;;;;;;;;11.98;47.21;97083.66;6372412;27;19923;-64
2022/04/26 19:42:53;;;;;;;;;;;;;;;11.96;47.36;97078.47;6373002;27;20021;-66
2022/04/26 19:45:54;;;;;;;;;;;;;;;11.92;47.55;97090.19;6372053;27;19927;-65
2022/04/26 19:48:57;;;;;;;;;;;;;;;11.86;47.64;97080.88;6372661;27;19924;-64
2022/04/26 19:52:00;;;;;;;;;;;;;;;11.81;47.39;97087.38;6372147;27;19930;-64
2022/04/26 19:55:04;;;;;;;;;;;;;;;11.89;47.27;97083.31;6372943;27;20388;-63
2022/04/26 19:58:05;;;;;;;;;;;;;;;12.11;46.54;97080.06;6371979;27;19923;-64
2022/04/26 20:01:06;;;;;;;;;;;;;;;12.11;46.50;97087.97;6371891;27;19942;-64
2022/04/26 20:04:08;;;;;;;;;;;;;;;12.07;46.84;97086.50;6371896;27;19927;-64
2022/04/26 20:07:14;;;;;;;;;;;;;;;11.98;46.62;97081.84;6372766;27;19930;-64
2022/04/26 20:10:18;;;;;;;;;;;;;;;12.07;46.63;97090.94;6353314;27;19923;-63
2022/04/26 20:13:19;;;;;;;;;;;;;;;12.10;46.68;97093.38;6371406;27;19927;-64
2022/04/26 20:16:23;;;;;;;;;;;;;;;12.24;46.42;97087.16;6372174;27;20308;-64
2022/04/26 20:19:24;;;;;;;;;;;;;;;12.16;46.68;97085.03;6353774;27;19923;-65
2022/04/26 20:22:27;;;;;;;;;;;;;;;12.25;46.57;97083.56;6372191;27;20398;-65
2022/04/26 20:25:28;;;;;;;;;;;;;;;12.18;46.47;97092.84;6372197;27;19930;-64
2022/04/26 20:31:48;;;;;;;;;;;;;;;12.14;46.40;97092.19;6371178;27;19920;-64